Dades meteomassalio
Diari Summary for Gener 19, 2018 Units:  Both    English   Metric
« Previous Day
Next Day »
Diari Semanal Mensual Anual Personalitzat
  Maxima: Minima: Mijana:
Temperatura: TemperatureC °F /  -17.8 °C -0.6 °F /  -18.1 °C 9.2 °F /  -12.7 °C
Rosada: DewpointC °F /  -17.8 °C -4.1 °F /  -20.1 °C 4.2 °F /  -15.4 °C
Humitat: Humidity % 57 % 71 %
Velocitat del vent: WindSpeedKMH mph /  0 km/h - 25.5 mph /  41 km/h
Racha vent: WindSpeedGustKMH mph /  0 km/h - -
Vent:- - NW
Pressio: PressurehPa in /  0 hPa 1021.6 in /  34591.4 hPa -
Pluja: 0.0 in /  0 mm    
Historical Graphs
 
 
Tabular Data for Gener 19, 2018
Time Temperature Dew Point Pressure Wind Wind Speed Wind Gust Humidity Rainfall Rate (Hourly) solar Conditions
TemperatureC °F /  -17.8 °C DewpointC °F /  -17.8 °C PressurehPa in /  0 hPa Calm     Humidity % HourlyPrecipMM in /  0 mm SolarRadiationWatts/m^2 W/m2 Conditions
00:02 1.7 °F /  -16.8 °C -1.1 °F /  -18.4 °C 1024.3 in /  34682.8 hPa Calm     82 % 0.0 in /  0 mm 0.0 W/m2 CLR
00:07 1.7 °F /  -16.8 °C -1.1 °F /  -18.4 °C 1024.3 in /  34682.8 hPa Calm     82 % 0.0 in /  0 mm 0.0 W/m2 CLR
00:12 1.7 °F /  -16.8 °C -1.2 °F /  -18.4 °C 1024.6 in /  34693 hPa Calm     81 % 0.0 in /  0 mm 0.0 W/m2 CLR
00:17 1.1 °F /  -17.2 °C -1.6 °F /  -18.7 °C 1024.6 in /  34693 hPa Calm     82 % 0.0 in /  0 mm 0.0 W/m2 CLR
00:22 1.1 °F /  -17.2 °C -1.4 °F /  -18.6 °C 1024.6 in /  34693 hPa Calm     83 % 0.0 in /  0 mm 0.0 W/m2 CLR
00:27 1.1 °F /  -17.2 °C -1.4 °F /  -18.6 °C 1024.6 in /  34693 hPa Calm     83 % 0.0 in /  0 mm 0.0 W/m2 CLR
00:32 1.1 °F /  -17.2 °C -1.4 °F /  -18.6 °C 1024.6 in /  34693 hPa Calm     83 % 0.0 in /  0 mm 0.0 W/m2 CLR
00:37 1.1 °F /  -17.2 °C -1.4 °F /  -18.6 °C 1024.6 in /  34693 hPa Calm     83 % 0.0 in /  0 mm 0.0 W/m2 CLR
00:42 1.1 °F /  -17.2 °C -1.3 °F /  -18.5 °C 1024.3 in /  34682.8 hPa Calm     84 % 0.0 in /  0 mm 0.0 W/m2 CLR
00:47 1.1 °F /  -17.2 °C -1.1 °F /  -18.4 °C 1024.3 in /  34682.8 hPa Calm     85 % 0.0 in /  0 mm 0.0 W/m2 CLR
00:52 1.1 °F /  -17.2 °C -0.9 °F /  -18.3 °C 1024.3 in /  34682.8 hPa Calm     86 % 0.0 in /  0 mm 0.0 W/m2 CLR
00:57 0.6 °F /  -17.4 °C -1.8 °F /  -18.8 °C 1024.3 in /  34682.8 hPa Calm     84 % 0.0 in /  0 mm 0.0 W/m2 CLR
01:02 0.6 °F /  -17.4 °C -2.0 °F /  -18.9 °C 1024.3 in /  34682.8 hPa Calm     83 % 0.0 in /  0 mm 0.0 W/m2 CLR
01:07 0.6 °F /  -17.4 °C -2.2 °F /  -19 °C 1024.3 in /  34682.8 hPa Calm     82 % 0.0 in /  0 mm 0.0 W/m2 CLR
01:08 0.6 °F /  -17.4 °C -2.2 °F /  -19 °C 1024.3 in /  34682.8 hPa Calm     82 % 0.0 in /  0 mm 0.0 W/m2 CLR
01:13 0.0 °F /  -17.8 °C -2.7 °F /  -19.3 °C 1024.3 in /  34682.8 hPa Calm     82 % 0.0 in /  0 mm 0.0 W/m2 CLR
01:18 0.0 °F /  -17.8 °C -2.7 °F /  -19.3 °C 1024.3 in /  34682.8 hPa Calm     82 % 0.0 in /  0 mm 0.0 W/m2 CLR
01:23 0.0 °F /  -17.8 °C -2.6 °F /  -19.2 °C 1024.3 in /  34682.8 hPa Calm     83 % 0.0 in /  0 mm 0.0 W/m2 CLR
01:28 0.0 °F /  -17.8 °C -2.6 °F /  -19.2 °C 1023.9 in /  34669.3 hPa Calm     83 % 0.0 in /  0 mm 0.0 W/m2 CLR
01:33 0.0 °F /  -17.8 °C -2.6 °F /  -19.2 °C 1024.3 in /  34682.8 hPa Calm     83 % 0.0 in /  0 mm 0.0 W/m2 CLR
01:38 0.0 °F /  -17.8 °C -2.6 °F /  -19.2 °C 1024.3 in /  34682.8 hPa Calm     83 % 0.0 in /  0 mm 0.0 W/m2 CLR
01:43 0.0 °F /  -17.8 °C -2.6 °F /  -19.2 °C 1024.3 in /  34682.8 hPa Calm     83 % 0.0 in /  0 mm 0.0 W/m2 CLR
01:48 0.0 °F /  -17.8 °C -2.6 °F /  -19.2 °C 1023.9 in /  34669.3 hPa Calm     83 % 0.0 in /  0 mm 0.0 W/m2 CLR
01:49 0.0 °F /  -17.8 °C -2.6 °F /  -19.2 °C 1023.9 in /  34669.3 hPa Calm     83 % 0.0 in /  0 mm 0.0 W/m2 CLR
01:54 0.0 °F /  -17.8 °C -2.6 °F /  -19.2 °C 1023.9 in /  34669.3 hPa Calm     83 % 0.0 in /  0 mm 0.0 W/m2 CLR
01:59 0.0 °F /  -17.8 °C -2.7 °F /  -19.3 °C 1023.9 in /  34669.3 hPa Calm     82 % 0.0 in /  0 mm 0.0 W/m2 CLR
02:04 -0.6 °F /  -18.1 °C -3.3 °F /  -19.6 °C 1023.9 in /  34669.3 hPa Calm     82 % 0.0 in /  0 mm 0.0 W/m2 CLR
02:09 -0.6 °F /  -18.1 °C -3.3 °F /  -19.6 °C 1023.9 in /  34669.3 hPa Calm     82 % 0.0 in /  0 mm 0.0 W/m2 CLR
02:14 -0.6 °F /  -18.1 °C -3.3 °F /  -19.6 °C 1023.9 in /  34669.3 hPa Calm     82 % 0.0 in /  0 mm 0.0 W/m2 CLR
02:19 -0.6 °F /  -18.1 °C -3.3 °F /  -19.6 °C 1023.9 in /  34669.3 hPa Calm     82 % 0.0 in /  0 mm 0.0 W/m2 CLR
02:24 -0.6 °F /  -18.1 °C -3.4 °F /  -19.7 °C 1023.9 in /  34669.3 hPa Calm     81 % 0.0 in /  0 mm 0.0 W/m2 CLR
02:29 0.0 °F /  -17.8 °C -2.6 °F /  -19.2 °C 1023.9 in /  34669.3 hPa Calm     83 % 0.0 in /  0 mm 0.0 W/m2 CLR
02:34 0.0 °F /  -17.8 °C -2.9 °F /  -19.4 °C 1023.9 in /  34669.3 hPa Calm     81 % 0.0 in /  0 mm 0.0 W/m2 CLR
02:39 0.0 °F /  -17.8 °C -3.1 °F /  -19.5 °C 1023.9 in /  34669.3 hPa WNW 5.6 mph /  9 km/h 5.6 mph /  9 km/h 80 % 0.0 in /  0 mm 0.0 W/m2 CLR
02:44 0.0 °F /  -17.8 °C -3.4 °F /  -19.7 °C 1023.9 in /  34669.3 hPa WNW 11.1 mph /  17.9 km/h 11.1 mph /  17.9 km/h 78 % 0.0 in /  0 mm 0.0 W/m2 CLR
02:49 0.0 °F /  -17.8 °C -3.9 °F /  -19.9 °C 1023.9 in /  34669.3 hPa West 7.4 mph /  11.9 km/h 7.4 mph /  11.9 km/h 75 % 0.0 in /  0 mm 0.0 W/m2 CLR
02:54 0.0 °F /  -17.8 °C -3.4 °F /  -19.7 °C 1023.9 in /  34669.3 hPa West 25.9 mph /  41.7 km/h 25.9 mph /  41.7 km/h 78 % 0.0 in /  0 mm 0.0 W/m2 CLR
02:59 0.0 °F /  -17.8 °C -3.7 °F /  -19.8 °C 1023.9 in /  34669.3 hPa WNW 24.1 mph /  38.8 km/h 24.1 mph /  38.8 km/h 76 % 0.0 in /  0 mm 0.0 W/m2 CLR
03:04 0.0 °F /  -17.8 °C -4.1 °F /  -20.1 °C 1023.9 in /  34669.3 hPa West 24.1 mph /  38.8 km/h 24.1 mph /  38.8 km/h 74 % 0.0 in /  0 mm 0.0 W/m2 CLR
03:09 0.6 °F /  -17.4 °C -3.7 °F /  -19.8 °C 1023.9 in /  34669.3 hPa West 11.3 mph /  18.2 km/h 11.3 mph /  18.2 km/h 73 % 0.0 in /  0 mm 0.0 W/m2 CLR
03:14 1.1 °F /  -17.2 °C -3.2 °F /  -19.6 °C 1023.9 in /  34669.3 hPa WNW 14.8 mph /  23.8 km/h 14.8 mph /  23.8 km/h 73 % 0.0 in /  0 mm 0.0 W/m2 CLR
03:19 2.2 °F /  -16.6 °C -1.9 °F /  -18.8 °C 1023.9 in /  34669.3 hPa West 16.7 mph /  26.9 km/h 16.7 mph /  26.9 km/h 74 % 0.0 in /  0 mm 0.0 W/m2 CLR
03:24 2.8 °F /  -16.2 °C -1.4 °F /  -18.6 °C 1023.9 in /  34669.3 hPa West 18.5 mph /  29.8 km/h 18.5 mph /  29.8 km/h 74 % 0.0 in /  0 mm 0.0 W/m2 CLR
03:29 4.4 °F /  -15.3 °C 0.2 °F /  -17.7 °C 1023.9 in /  34669.3 hPa West 18.5 mph /  29.8 km/h 18.5 mph /  29.8 km/h 74 % 0.0 in /  0 mm 0.0 W/m2 CLR
03:34 5.0 °F /  -15 °C 0.7 °F /  -17.4 °C 1023.9 in /  34669.3 hPa WNW 24.1 mph /  38.8 km/h 24.1 mph /  38.8 km/h 74 % 0.0 in /  0 mm 0.0 W/m2 CLR
03:39 5.6 °F /  -14.7 °C 1.3 °F /  -17.1 °C 1023.9 in /  34669.3 hPa WNW 18.5 mph /  29.8 km/h 18.5 mph /  29.8 km/h 74 % 0.0 in /  0 mm 0.0 W/m2 CLR
03:44 5.6 °F /  -14.7 °C 1.1 °F /  -17.2 °C 1023.9 in /  34669.3 hPa WNW 18.5 mph /  29.8 km/h 18.5 mph /  29.8 km/h 73 % 0.0 in /  0 mm 0.0 W/m2 CLR
03:49 5.0 °F /  -15 °C 0.6 °F /  -17.4 °C 1023.9 in /  34669.3 hPa WNW 9.3 mph /  15 km/h 9.3 mph /  15 km/h 73 % 0.0 in /  0 mm 0.0 W/m2 CLR
03:54 5.0 °F /  -15 °C 0.6 °F /  -17.4 °C 1023.9 in /  34669.3 hPa NW 9.3 mph /  15 km/h 9.3 mph /  15 km/h 73 % 0.0 in /  0 mm 0.0 W/m2 CLR
03:59 4.4 °F /  -15.3 °C 0.0 °F /  -17.8 °C 1023.9 in /  34669.3 hPa WNW 6.4 mph /  10.3 km/h 6.4 mph /  10.3 km/h 73 % 0.0 in /  0 mm 0.0 W/m2 CLR
04:04 3.9 °F /  -15.6 °C -0.5 °F /  -18.1 °C 1023.6 in /  34659.1 hPa NW 7.4 mph /  11.9 km/h 7.4 mph /  11.9 km/h 73 % 0.0 in /  0 mm 0.0 W/m2 CLR
04:09 4.4 °F /  -15.3 °C 0.0 °F /  -17.8 °C 1023.6 in /  34659.1 hPa WNW 9.7 mph /  15.6 km/h 9.7 mph /  15.6 km/h 73 % 0.0 in /  0 mm 0.0 W/m2 CLR
04:14 5.0 °F /  -15 °C 0.7 °F /  -17.4 °C 1023.6 in /  34659.1 hPa WNW 11.3 mph /  18.2 km/h 11.3 mph /  18.2 km/h 74 % 0.0 in /  0 mm 0.0 W/m2 CLR
04:19 5.0 °F /  -15 °C 0.7 °F /  -17.4 °C 1023.2 in /  34645.6 hPa WNW 5.6 mph /  9 km/h 5.6 mph /  9 km/h 74 % 0.0 in /  0 mm 0.0 W/m2 CLR
04:24 5.0 °F /  -15 °C 0.7 °F /  -17.4 °C 1023.2 in /  34645.6 hPa WNW 5.6 mph /  9 km/h 5.6 mph /  9 km/h 74 % 0.0 in /  0 mm 0.0 W/m2 CLR
04:29 5.0 °F /  -15 °C 0.6 °F /  -17.4 °C 1023.2 in /  34645.6 hPa Calm     73 % 0.0 in /  0 mm 0.0 W/m2 CLR
04:34 5.0 °F /  -15 °C 0.7 °F /  -17.4 °C 1023.2 in /  34645.6 hPa Calm     74 % 0.0 in /  0 mm 0.0 W/m2 CLR
04:39 4.4 °F /  -15.3 °C 0.8 °F /  -17.3 °C 1023.2 in /  34645.6 hPa NW 3.7 mph /  6 km/h 3.7 mph /  6 km/h 77 % 0.0 in /  0 mm 0.0 W/m2 CLR
04:44 4.4 °F /  -15.3 °C 0.9 °F /  -17.3 °C 1022.9 in /  34635.4 hPa NW 8.0 mph /  12.9 km/h 8.0 mph /  12.9 km/h 78 % 0.0 in /  0 mm 0.0 W/m2 CLR
04:49 4.4 °F /  -15.3 °C 0.8 °F /  -17.3 °C 1022.9 in /  34635.4 hPa WNW 1.9 mph /  3.1 km/h   77 % 0.0 in /  0 mm 0.0 W/m2 CLR
04:54 3.9 °F /  -15.6 °C 0.1 °F /  -17.7 °C 1022.9 in /  34635.4 hPa WSW 1.6 mph /  2.6 km/h 1.6 mph /  2.6 km/h 76 % 0.0 in /  0 mm 0.0 W/m2 CLR
04:59 4.4 °F /  -15.3 °C 0.6 °F /  -17.4 °C 1022.9 in /  34635.4 hPa West 13.0 mph /  20.9 km/h 13.0 mph /  20.9 km/h 76 % 0.0 in /  0 mm 0.0 W/m2 CLR
05:04 6.7 °F /  -14.1 °C 2.9 °F /  -16.2 °C 1022.9 in /  34635.4 hPa WSW 8.0 mph /  12.9 km/h 8.0 mph /  12.9 km/h 77 % 0.0 in /  0 mm 0.0 W/m2 CLR
05:09 7.8 °F /  -13.4 °C 4.0 °F /  -15.6 °C 1022.9 in /  34635.4 hPa Calm     77 % 0.0 in /  0 mm 0.0 W/m2 CLR
05:14 8.3 °F /  -13.2 °C 4.6 °F /  -15.2 °C 1022.9 in /  34635.4 hPa Calm     77 % 0.0 in /  0 mm 0.0 W/m2 CLR
05:19 8.3 °F /  -13.2 °C 4.6 °F /  -15.2 °C 1022.6 in /  34625.2 hPa West 5.6 mph /  9 km/h 5.6 mph /  9 km/h 77 % 0.0 in /  0 mm 0.0 W/m2 CLR
05:24 7.8 °F /  -13.4 °C 3.8 °F /  -15.7 °C 1022.9 in /  34635.4 hPa WSW 5.6 mph /  9 km/h 5.6 mph /  9 km/h 76 % 0.0 in /  0 mm 0.0 W/m2 CLR
05:29 7.8 °F /  -13.4 °C 4.0 °F /  -15.6 °C 1022.9 in /  34635.4 hPa West 5.6 mph /  9 km/h 5.6 mph /  9 km/h 77 % 0.0 in /  0 mm 0.0 W/m2 CLR
05:34 7.2 °F /  -13.8 °C 3.4 °F /  -15.9 °C 1022.9 in /  34635.4 hPa Calm     77 % 0.0 in /  0 mm 0.0 W/m2 CLR
05:39 6.7 °F /  -14.1 °C 2.9 °F /  -16.2 °C 1022.9 in /  34635.4 hPa Calm   1.3 mph /  2.1 km/h 77 % 0.0 in /  0 mm 0.0 W/m2 CLR
05:45 5.6 °F /  -14.7 °C 2.0 °F /  -16.7 °C 1022.6 in /  34625.2 hPa West 5.6 mph /  9 km/h 5.6 mph /  9 km/h 78 % 0.0 in /  0 mm 0.0 W/m2 CLR
05:49 5.0 °F /  -15 °C 1.5 °F /  -16.9 °C 1022.6 in /  34625.2 hPa WSW 5.6 mph /  9 km/h 5.6 mph /  9 km/h 78 % 0.0 in /  0 mm 0.0 W/m2 CLR
05:55 5.6 °F /  -14.7 °C 2.0 °F /  -16.7 °C 1022.6 in /  34625.2 hPa West 5.6 mph /  9 km/h 5.6 mph /  9 km/h 78 % 0.0 in /  0 mm 0.0 W/m2 CLR
06:00 5.6 °F /  -14.7 °C 2.4 °F /  -16.4 °C 1022.6 in /  34625.2 hPa West 11.1 mph /  17.9 km/h 11.1 mph /  17.9 km/h 80 % 0.0 in /  0 mm 0.0 W/m2 CLR
06:05 6.7 °F /  -14.1 °C 3.3 °F /  -15.9 °C 1022.6 in /  34625.2 hPa WNW 22.2 mph /  35.7 km/h 22.2 mph /  35.7 km/h 79 % 0.0 in /  0 mm 0.0 W/m2 CLR
06:10 7.2 °F /  -13.8 °C 3.4 °F /  -15.9 °C 1022.6 in /  34625.2 hPa WNW 22.2 mph /  35.7 km/h 22.2 mph /  35.7 km/h 77 % 0.0 in /  0 mm 0.0 W/m2 CLR
06:15 7.8 °F /  -13.4 °C 3.8 °F /  -15.7 °C 1022.6 in /  34625.2 hPa WNW 27.8 mph /  44.7 km/h 27.8 mph /  44.7 km/h 76 % 0.0 in /  0 mm 0.0 W/m2 CLR
06:20 8.3 °F /  -13.2 °C 4.3 °F /  -15.4 °C 1022.6 in /  34625.2 hPa WNW 24.1 mph /  38.8 km/h 24.1 mph /  38.8 km/h 76 % 0.0 in /  0 mm 0.0 W/m2 CLR
06:25 8.3 °F /  -13.2 °C 4.2 °F /  -15.4 °C 1022.6 in /  34625.2 hPa West 18.5 mph /  29.8 km/h 18.5 mph /  29.8 km/h 75 % 0.0 in /  0 mm 0.0 W/m2 CLR
06:30 8.3 °F /  -13.2 °C 4.3 °F /  -15.4 °C 1022.6 in /  34625.2 hPa WNW 25.9 mph /  41.7 km/h 25.9 mph /  41.7 km/h 76 % 0.0 in /  0 mm 0.0 W/m2 CLR
06:35 8.3 °F /  -13.2 °C 4.2 °F /  -15.4 °C 1022.6 in /  34625.2 hPa WNW 27.8 mph /  44.7 km/h 27.8 mph /  44.7 km/h 75 % 0.0 in /  0 mm 0.0 W/m2 CLR
06:40 8.3 °F /  -13.2 °C 4.3 °F /  -15.4 °C 1022.6 in /  34625.2 hPa NW 24.1 mph /  38.8 km/h 24.1 mph /  38.8 km/h 76 % 0.0 in /  0 mm 0.0 W/m2 CLR
06:45 8.3 °F /  -13.2 °C 4.3 °F /  -15.4 °C 1022.6 in /  34625.2 hPa NW 24.1 mph /  38.8 km/h 24.1 mph /  38.8 km/h 76 % 0.0 in /  0 mm 0.0 W/m2 CLR
06:50 8.3 °F /  -13.2 °C 4.3 °F /  -15.4 °C 1022.6 in /  34625.2 hPa NW 31.5 mph /  50.7 km/h 31.5 mph /  50.7 km/h 76 % 0.0 in /  0 mm 0.0 W/m2 CLR
06:55 8.3 °F /  -13.2 °C 4.3 °F /  -15.4 °C 1022.6 in /  34625.2 hPa NW 33.8 mph /  54.4 km/h 33.8 mph /  54.4 km/h 76 % 0.0 in /  0 mm 0.0 W/m2 CLR
07:00 8.9 °F /  -12.8 °C 5.1 °F /  -14.9 °C 1022.6 in /  34625.2 hPa NW 29.6 mph /  47.6 km/h 29.6 mph /  47.6 km/h 77 % 0.0 in /  0 mm 0.0 W/m2 CLR
07:05 8.9 °F /  -12.8 °C 4.9 °F /  -15.1 °C 1022.2 in /  34611.7 hPa NW 38.9 mph /  62.6 km/h 38.9 mph /  62.6 km/h 76 % 0.0 in /  0 mm 0.0 W/m2 CLR
07:10 8.9 °F /  -12.8 °C 4.9 °F /  -15.1 °C 1022.6 in /  34625.2 hPa NW 31.5 mph /  50.7 km/h 31.5 mph /  50.7 km/h 76 % 0.0 in /  0 mm 0.0 W/m2 CLR
07:15 8.9 °F /  -12.8 °C 5.1 °F /  -14.9 °C 1022.6 in /  34625.2 hPa NNW 32.2 mph /  51.8 km/h 32.2 mph /  51.8 km/h 77 % 0.0 in /  0 mm 0.0 W/m2 CLR
07:20 8.9 °F /  -12.8 °C 5.1 °F /  -14.9 °C 1022.6 in /  34625.2 hPa NW 35.2 mph /  56.6 km/h 35.2 mph /  56.6 km/h 77 % 0.0 in /  0 mm 0.0 W/m2 CLR
07:25 8.9 °F /  -12.8 °C 5.1 °F /  -14.9 °C 1022.6 in /  34625.2 hPa NNW 29.6 mph /  47.6 km/h 29.6 mph /  47.6 km/h 77 % 0.0 in /  0 mm 0.0 W/m2 CLR
07:30 8.9 °F /  -12.8 °C 5.3 °F /  -14.8 °C 1022.6 in /  34625.2 hPa NW 31.5 mph /  50.7 km/h 31.5 mph /  50.7 km/h 78 % 0.0 in /  0 mm 0.0 W/m2 CLR
07:35 8.9 °F /  -12.8 °C 5.1 °F /  -14.9 °C 1022.6 in /  34625.2 hPa NNW 37.0 mph /  59.5 km/h 37.0 mph /  59.5 km/h 77 % 0.0 in /  0 mm 0.0 W/m2 CLR
07:40 8.9 °F /  -12.8 °C 5.1 °F /  -14.9 °C 1022.6 in /  34625.2 hPa NW 27.8 mph /  44.7 km/h 27.8 mph /  44.7 km/h 77 % 0.0 in /  0 mm 0.0 W/m2 CLR
07:45 8.9 °F /  -12.8 °C 5.1 °F /  -14.9 °C 1022.9 in /  34635.4 hPa WNW 27.8 mph /  44.7 km/h 27.8 mph /  44.7 km/h 77 % 0.0 in /  0 mm 0.0 W/m2 CLR
07:50 8.9 °F /  -12.8 °C 5.1 °F /  -14.9 °C 1022.9 in /  34635.4 hPa NW 31.5 mph /  50.7 km/h 31.5 mph /  50.7 km/h 77 % 0.0 in /  0 mm 0.0 W/m2 CLR
07:55 8.9 °F /  -12.8 °C 5.1 °F /  -14.9 °C 1022.9 in /  34635.4 hPa WNW 27.8 mph /  44.7 km/h 27.8 mph /  44.7 km/h 77 % 0.0 in /  0 mm 0.0 W/m2 CLR
08:00 8.9 °F /  -12.8 °C 5.1 °F /  -14.9 °C 1022.9 in /  34635.4 hPa ESE 25.9 mph /  41.7 km/h 25.9 mph /  41.7 km/h 77 % 0.0 in /  0 mm 0.0 W/m2 CLR
08:05 8.9 °F /  -12.8 °C 5.1 °F /  -14.9 °C 1022.6 in /  34625.2 hPa WNW 22.2 mph /  35.7 km/h 22.2 mph /  35.7 km/h 77 % 0.0 in /  0 mm 0.0 W/m2 CLR
08:10 8.9 °F /  -12.8 °C 5.1 °F /  -14.9 °C 1022.9 in /  34635.4 hPa WNW 20.4 mph /  32.8 km/h 20.4 mph /  32.8 km/h 77 % 0.0 in /  0 mm 0.0 W/m2 OVC
08:15 8.9 °F /  -12.8 °C 5.3 °F /  -14.8 °C 1022.9 in /  34635.4 hPa WNW 24.1 mph /  38.8 km/h 24.1 mph /  38.8 km/h 78 % 0.0 in /  0 mm 0.0 W/m2 OVC
08:20 8.9 °F /  -12.8 °C 5.3 °F /  -14.8 °C 1022.9 in /  34635.4 hPa NW 18.5 mph /  29.8 km/h 18.5 mph /  29.8 km/h 78 % 0.0 in /  0 mm 0.0 W/m2 OVC
08:25 8.9 °F /  -12.8 °C 5.3 °F /  -14.8 °C 1022.9 in /  34635.4 hPa WNW 18.5 mph /  29.8 km/h 18.5 mph /  29.8 km/h 78 % 0.0 in /  0 mm 5.0 W/m2 OVC
08:30 8.9 °F /  -12.8 °C 5.3 °F /  -14.8 °C 1022.9 in /  34635.4 hPa WNW 18.5 mph /  29.8 km/h 18.5 mph /  29.8 km/h 78 % 0.0 in /  0 mm 9.0 W/m2 BKN
08:35 8.9 °F /  -12.8 °C 5.1 °F /  -14.9 °C 1022.9 in /  34635.4 hPa WNW 24.1 mph /  38.8 km/h 24.1 mph /  38.8 km/h 77 % 0.0 in /  0 mm 14.0 W/m2 BKN
08:40 8.9 °F /  -12.8 °C 5.3 °F /  -14.8 °C 1022.9 in /  34635.4 hPa WNW 19.3 mph /  31.1 km/h 19.3 mph /  31.1 km/h 78 % 0.0 in /  0 mm 21.0 W/m2 BKN
08:45 8.9 °F /  -12.8 °C 5.3 °F /  -14.8 °C 1022.9 in /  34635.4 hPa WNW 22.2 mph /  35.7 km/h 22.2 mph /  35.7 km/h 78 % 0.0 in /  0 mm 28.0 W/m2 BKN
08:50 8.9 °F /  -12.8 °C 5.3 °F /  -14.8 °C 1022.9 in /  34635.4 hPa WNW 24.1 mph /  38.8 km/h 24.1 mph /  38.8 km/h 78 % 0.0 in /  0 mm 37.0 W/m2 BKN
08:55 8.9 °F /  -12.8 °C 5.3 °F /  -14.8 °C 1022.9 in /  34635.4 hPa West 25.7 mph /  41.4 km/h 25.7 mph /  41.4 km/h 78 % 0.0 in /  0 mm 46.0 W/m2 SCT
09:00 8.9 °F /  -12.8 °C 5.1 °F /  -14.9 °C 1022.9 in /  34635.4 hPa NW 22.2 mph /  35.7 km/h 22.2 mph /  35.7 km/h 77 % 0.0 in /  0 mm 51.0 W/m2 SCT
09:05 9.4 °F /  -12.6 °C 5.6 °F /  -14.7 °C 1022.9 in /  34635.4 hPa WNW 25.9 mph /  41.7 km/h 25.9 mph /  41.7 km/h 77 % 0.0 in /  0 mm 58.0 W/m2 SCT
09:10 9.4 °F /  -12.6 °C 5.6 °F /  -14.7 °C 1022.9 in /  34635.4 hPa WNW 17.7 mph /  28.5 km/h 17.7 mph /  28.5 km/h 77 % 0.0 in /  0 mm 63.0 W/m2 SCT
09:15 9.4 °F /  -12.6 °C 5.6 °F /  -14.7 °C 1022.9 in /  34635.4 hPa NW 22.2 mph /  35.7 km/h 22.2 mph /  35.7 km/h 77 % 0.0 in /  0 mm 69.0 W/m2 FEW
09:20 8.9 °F /  -12.8 °C 5.1 °F /  -14.9 °C 1022.9 in /  34635.4 hPa WNW 20.9 mph /  33.6 km/h 20.9 mph /  33.6 km/h 77 % 0.0 in /  0 mm 72.0 W/m2 FEW
09:25 9.4 °F /  -12.6 °C 5.6 °F /  -14.7 °C 1022.9 in /  34635.4 hPa NW 22.2 mph /  35.7 km/h 22.2 mph /  35.7 km/h 77 % 0.0 in /  0 mm 81.0 W/m2 FEW
09:30 9.4 °F /  -12.6 °C 5.6 °F /  -14.7 °C 1022.9 in /  34635.4 hPa WNW 18.5 mph /  29.8 km/h 18.5 mph /  29.8 km/h 77 % 0.0 in /  0 mm 84.0 W/m2 FEW
09:35 9.4 °F /  -12.6 °C 5.4 °F /  -14.8 °C 1022.9 in /  34635.4 hPa West 25.9 mph /  41.7 km/h 25.9 mph /  41.7 km/h 76 % 0.0 in /  0 mm 83.0 W/m2 FEW
09:40 9.4 °F /  -12.6 °C 5.4 °F /  -14.8 °C 1022.9 in /  34635.4 hPa WNW 24.1 mph /  38.8 km/h 24.1 mph /  38.8 km/h 76 % 0.0 in /  0 mm 84.0 W/m2 FEW
09:45 9.4 °F /  -12.6 °C 5.4 °F /  -14.8 °C 1022.9 in /  34635.4 hPa WNW 22.2 mph /  35.7 km/h 22.2 mph /  35.7 km/h 76 % 0.0 in /  0 mm 88.0 W/m2 FEW
09:50 10.0 °F /  -12.2 °C 5.9 °F /  -14.5 °C 1022.9 in /  34635.4 hPa NW 16.7 mph /  26.9 km/h 16.7 mph /  26.9 km/h 76 % 0.0 in /  0 mm 93.0 W/m2 CLR
09:55 10.0 °F /  -12.2 °C 5.9 °F /  -14.5 °C 1023.2 in /  34645.6 hPa WNW 16.1 mph /  25.9 km/h 16.1 mph /  25.9 km/h 76 % 0.0 in /  0 mm 100.0 W/m2 CLR
10:00 10.0 °F /  -12.2 °C 5.9 °F /  -14.5 °C 1023.2 in /  34645.6 hPa NW 13.0 mph /  20.9 km/h 13.0 mph /  20.9 km/h 76 % 0.0 in /  0 mm 109.0 W/m2 CLR
10:05 10.0 °F /  -12.2 °C 5.9 °F /  -14.5 °C 1023.2 in /  34645.6 hPa NW 18.5 mph /  29.8 km/h 18.5 mph /  29.8 km/h 76 % 0.0 in /  0 mm 128.0 W/m2 CLR
10:10 10.6 °F /  -11.9 °C 6.5 °F /  -14.2 °C 1023.2 in /  34645.6 hPa NNW 27.4 mph /  44.1 km/h 27.4 mph /  44.1 km/h 76 % 0.0 in /  0 mm 169.0 W/m2 CLR
10:15 10.6 °F /  -11.9 °C 6.3 °F /  -14.3 °C 1023.2 in /  34645.6 hPa NNW 22.2 mph /  35.7 km/h 22.2 mph /  35.7 km/h 75 % 0.0 in /  0 mm 155.0 W/m2 CLR
10:20 10.6 °F /  -11.9 °C 6.1 °F /  -14.4 °C 1023.2 in /  34645.6 hPa NNW 29.6 mph /  47.6 km/h 29.6 mph /  47.6 km/h 74 % 0.0 in /  0 mm 241.0 W/m2 CLR
10:25 11.1 °F /  -11.6 °C 6.7 °F /  -14.1 °C 1023.2 in /  34645.6 hPa NNW 31.5 mph /  50.7 km/h 31.5 mph /  50.7 km/h 74 % 0.0 in /  0 mm 262.0 W/m2 CLR
10:30 11.1 °F /  -11.6 °C 6.4 °F /  -14.2 °C 1023.2 in /  34645.6 hPa NNW 27.8 mph /  44.7 km/h 27.8 mph /  44.7 km/h 73 % 0.0 in /  0 mm 258.0 W/m2 CLR
10:35 11.7 °F /  -11.3 °C 7.0 °F /  -13.9 °C 1023.2 in /  34645.6 hPa NNW 24.1 mph /  38.8 km/h 24.1 mph /  38.8 km/h 73 % 0.0 in /  0 mm 220.0 W/m2 CLR
10:40 11.7 °F /  -11.3 °C 6.8 °F /  -14 °C 1023.2 in /  34645.6 hPa NW 29.6 mph /  47.6 km/h 29.6 mph /  47.6 km/h 72 % 0.0 in /  0 mm 232.0 W/m2 CLR
10:45 11.7 °F /  -11.3 °C 6.8 °F /  -14 °C 1022.9 in /  34635.4 hPa North 29.6 mph /  47.6 km/h 29.6 mph /  47.6 km/h 72 % 0.0 in /  0 mm 236.0 W/m2 CLR
10:50 11.7 °F /  -11.3 °C 6.8 °F /  -14 °C 1022.9 in /  34635.4 hPa NW 29.6 mph /  47.6 km/h 29.6 mph /  47.6 km/h 72 % 0.0 in /  0 mm 243.0 W/m2 CLR
10:55 11.7 °F /  -11.3 °C 6.8 °F /  -14 °C 1022.9 in /  34635.4 hPa NW 29.6 mph /  47.6 km/h 29.6 mph /  47.6 km/h 72 % 0.0 in /  0 mm 214.0 W/m2 CLR
11:01 12.2 °F /  -11 °C 7.1 °F /  -13.8 °C 1022.9 in /  34635.4 hPa NNW 33.3 mph /  53.6 km/h 33.3 mph /  53.6 km/h 71 % 0.0 in /  0 mm 197.0 W/m2 CLR
11:06 12.2 °F /  -11 °C 7.1 °F /  -13.8 °C 1022.9 in /  34635.4 hPa NNW 31.5 mph /  50.7 km/h 31.5 mph /  50.7 km/h 71 % 0.0 in /  0 mm 274.0 W/m2 CLR
11:11 12.2 °F /  -11 °C 7.1 °F /  -13.8 °C 1022.9 in /  34635.4 hPa NNW 38.9 mph /  62.6 km/h 38.9 mph /  62.6 km/h 71 % 0.0 in /  0 mm 308.0 W/m2 CLR
11:16 12.2 °F /  -11 °C 6.9 °F /  -13.9 °C 1022.9 in /  34635.4 hPa NNW 37.0 mph /  59.5 km/h 37.0 mph /  59.5 km/h 70 % 0.0 in /  0 mm 241.0 W/m2 CLR
11:21 12.2 °F /  -11 °C 6.9 °F /  -13.9 °C 1023.2 in /  34645.6 hPa WNW 27.8 mph /  44.7 km/h 27.8 mph /  44.7 km/h 70 % 0.0 in /  0 mm 239.0 W/m2 CLR
11:26 12.8 °F /  -10.7 °C 7.2 °F /  -13.8 °C 1023.2 in /  34645.6 hPa NNW 31.5 mph /  50.7 km/h 31.5 mph /  50.7 km/h 69 % 0.0 in /  0 mm 313.0 W/m2 CLR
11:31 12.8 °F /  -10.7 °C 7.0 °F /  -13.9 °C 1023.2 in /  34645.6 hPa NNW 40.7 mph /  65.5 km/h 40.7 mph /  65.5 km/h 68 % 0.0 in /  0 mm 341.0 W/m2 CLR
11:36 12.8 °F /  -10.7 °C 7.0 °F /  -13.9 °C 1023.2 in /  34645.6 hPa NW 33.3 mph /  53.6 km/h 33.3 mph /  53.6 km/h 68 % 0.0 in /  0 mm 394.0 W/m2 CLR
11:41 12.8 °F /  -10.7 °C 6.8 °F /  -14 °C 1023.2 in /  34645.6 hPa NW 37.0 mph /  59.5 km/h 37.0 mph /  59.5 km/h 67 % 0.0 in /  0 mm 378.0 W/m2 CLR
11:46 13.3 °F /  -10.4 °C 7.3 °F /  -13.7 °C 1023.2 in /  34645.6 hPa NW 31.5 mph /  50.7 km/h 31.5 mph /  50.7 km/h 67 % 0.0 in /  0 mm 415.0 W/m2 CLR
11:51 13.3 °F /  -10.4 °C 7.3 °F /  -13.7 °C 1022.9 in /  34635.4 hPa NNW 25.9 mph /  41.7 km/h 25.9 mph /  41.7 km/h 67 % 0.0 in /  0 mm 422.0 W/m2 CLR
11:56 13.3 °F /  -10.4 °C 7.1 °F /  -13.8 °C 1022.9 in /  34635.4 hPa NNW 32.2 mph /  51.8 km/h 32.2 mph /  51.8 km/h 66 % 0.0 in /  0 mm 432.0 W/m2 CLR
12:01 13.3 °F /  -10.4 °C 7.1 °F /  -13.8 °C 1023.2 in /  34645.6 hPa NNW 35.4 mph /  57 km/h 35.4 mph /  57 km/h 66 % 0.0 in /  0 mm 383.0 W/m2 CLR
12:06 13.3 °F /  -10.4 °C 6.9 °F /  -13.9 °C 1023.2 in /  34645.6 hPa NW 35.2 mph /  56.6 km/h 35.2 mph /  56.6 km/h 65 % 0.0 in /  0 mm 420.0 W/m2 CLR
12:11 13.3 °F /  -10.4 °C 6.9 °F /  -13.9 °C 1022.9 in /  34635.4 hPa NNW 30.6 mph /  49.2 km/h 31.4 mph /  50.5 km/h 65 % 0.0 in /  0 mm 355.0 W/m2 CLR
12:16 13.3 °F /  -10.4 °C 7.1 °F /  -13.8 °C 1022.9 in /  34635.4 hPa NW 27.8 mph /  44.7 km/h 27.8 mph /  44.7 km/h 66 % 0.0 in /  0 mm 276.0 W/m2 CLR
12:21 13.3 °F /  -10.4 °C 7.1 °F /  -13.8 °C 1022.9 in /  34635.4 hPa NW 25.9 mph /  41.7 km/h 25.9 mph /  41.7 km/h 66 % 0.0 in /  0 mm 316.0 W/m2 CLR
12:26 13.3 °F /  -10.4 °C 6.9 °F /  -13.9 °C 1022.9 in /  34635.4 hPa NW 22.2 mph /  35.7 km/h 22.2 mph /  35.7 km/h 65 % 0.0 in /  0 mm 373.0 W/m2 CLR
12:31 13.3 °F /  -10.4 °C 6.9 °F /  -13.9 °C 1022.9 in /  34635.4 hPa NNW 31.5 mph /  50.7 km/h 31.5 mph /  50.7 km/h 65 % 0.0 in /  0 mm 373.0 W/m2 CLR
12:36 13.9 °F /  -10.1 °C 7.4 °F /  -13.7 °C 1022.6 in /  34625.2 hPa NW 31.5 mph /  50.7 km/h 31.5 mph /  50.7 km/h 65 % 0.0 in /  0 mm 388.0 W/m2 CLR
12:41 13.9 °F /  -10.1 °C 7.4 °F /  -13.7 °C 1022.9 in /  34635.4 hPa NNW 35.2 mph /  56.6 km/h 35.2 mph /  56.6 km/h 65 % 0.0 in /  0 mm 441.0 W/m2 CLR
12:46 13.9 °F /  -10.1 °C 7.4 °F /  -13.7 °C 1022.6 in /  34625.2 hPa NW 29.6 mph /  47.6 km/h 29.6 mph /  47.6 km/h 65 % 0.0 in /  0 mm 466.0 W/m2 CLR
12:51 13.9 °F /  -10.1 °C 7.2 °F /  -13.8 °C 1022.6 in /  34625.2 hPa NW 37.0 mph /  59.5 km/h 37.0 mph /  59.5 km/h 64 % 0.0 in /  0 mm 436.0 W/m2 CLR
12:56 13.9 °F /  -10.1 °C 7.4 °F /  -13.7 °C 1022.6 in /  34625.2 hPa NW 20.4 mph /  32.8 km/h 20.4 mph /  32.8 km/h 65 % 0.0 in /  0 mm 381.0 W/m2 CLR
13:01 14.4 °F /  -9.8 °C 7.5 °F /  -13.6 °C 1022.2 in /  34611.7 hPa NW 33.3 mph /  53.6 km/h 33.3 mph /  53.6 km/h 63 % 0.0 in /  0 mm 471.0 W/m2 CLR
13:06 14.4 °F /  -9.8 °C 7.5 °F /  -13.6 °C 1022.2 in /  34611.7 hPa NNW 29.6 mph /  47.6 km/h 29.6 mph /  47.6 km/h 63 % 0.0 in /  0 mm 489.0 W/m2 CLR
13:11 14.4 °F /  -9.8 °C 7.2 °F /  -13.8 °C 1022.2 in /  34611.7 hPa NW 33.3 mph /  53.6 km/h 33.3 mph /  53.6 km/h 62 % 0.0 in /  0 mm 485.0 W/m2 CLR
13:16 15.0 °F /  -9.4 °C 7.8 °F /  -13.4 °C 1022.2 in /  34611.7 hPa NNW 33.3 mph /  53.6 km/h 33.3 mph /  53.6 km/h 62 % 0.0 in /  0 mm 487.0 W/m2 CLR
13:21 15.0 °F /  -9.4 °C 7.3 °F /  -13.7 °C 1022.2 in /  34611.7 hPa NW 31.5 mph /  50.7 km/h 31.5 mph /  50.7 km/h 60 % 0.0 in /  0 mm 483.0 W/m2 CLR
13:26 15.0 °F /  -9.4 °C 7.1 °F /  -13.8 °C 1022.2 in /  34611.7 hPa North 33.8 mph /  54.4 km/h 33.8 mph /  54.4 km/h 59 % 0.0 in /  0 mm 483.0 W/m2 CLR
13:31 15.0 °F /  -9.4 °C 6.6 °F /  -14.1 °C 1022.2 in /  34611.7 hPa NW 37.0 mph /  59.5 km/h 37.0 mph /  59.5 km/h 57 % 0.0 in /  0 mm 480.0 W/m2 CLR
13:36 15.0 °F /  -9.4 °C 6.8 °F /  -14 °C 1022.2 in /  34611.7 hPa NNW 31.5 mph /  50.7 km/h 31.5 mph /  50.7 km/h 58 % 0.0 in /  0 mm 478.0 W/m2 CLR
13:41 15.0 °F /  -9.4 °C 6.8 °F /  -14 °C 1021.9 in /  34601.5 hPa NW 35.2 mph /  56.6 km/h 35.2 mph /  56.6 km/h 58 % 0.0 in /  0 mm 476.0 W/m2 CLR
13:46 15.0 °F /  -9.4 °C 7.1 °F /  -13.8 °C 1021.9 in /  34601.5 hPa NW 38.9 mph /  62.6 km/h 38.9 mph /  62.6 km/h 59 % 0.0 in /  0 mm 473.0 W/m2 CLR
13:51 15.0 °F /  -9.4 °C 6.8 °F /  -14 °C 1021.9 in /  34601.5 hPa NW 35.2 mph /  56.6 km/h 35.2 mph /  56.6 km/h 58 % 0.0 in /  0 mm 469.0 W/m2 CLR
13:56 15.6 °F /  -9.1 °C 7.6 °F /  -13.6 °C 1021.9 in /  34601.5 hPa North 37.0 mph /  59.5 km/h 37.0 mph /  59.5 km/h 59 % 0.0 in /  0 mm 468.0 W/m2 CLR
14:01 15.6 °F /  -9.1 °C 7.3 °F /  -13.7 °C 1021.9 in /  34601.5 hPa NW 33.3 mph /  53.6 km/h 33.3 mph /  53.6 km/h 58 % 0.0 in /  0 mm 464.0 W/m2 CLR
14:06 15.6 °F /  -9.1 °C 7.3 °F /  -13.7 °C 1021.9 in /  34601.5 hPa NNW 31.5 mph /  50.7 km/h 31.5 mph /  50.7 km/h 58 % 0.0 in /  0 mm 459.0 W/m2 CLR
14:11 15.6 °F /  -9.1 °C 7.3 °F /  -13.7 °C 1021.9 in /  34601.5 hPa NNW 33.3 mph /  53.6 km/h 33.3 mph /  53.6 km/h 58 % 0.0 in /  0 mm 454.0 W/m2 CLR
14:16 15.6 °F /  -9.1 °C 7.3 °F /  -13.7 °C 1021.9 in /  34601.5 hPa NNW 50.0 mph /  80.5 km/h 50.0 mph /  80.5 km/h 58 % 0.0 in /  0 mm 450.0 W/m2 CLR
14:21 15.6 °F /  -9.1 °C 7.3 °F /  -13.7 °C 1021.9 in /  34601.5 hPa North 51.8 mph /  83.4 km/h 51.8 mph /  83.4 km/h 58 % 0.0 in /  0 mm 452.0 W/m2 CLR
14:26 15.0 °F /  -9.4 °C 7.1 °F /  -13.8 °C 1021.9 in /  34601.5 hPa NW 33.3 mph /  53.6 km/h 33.3 mph /  53.6 km/h 59 % 0.0 in /  0 mm 390.0 W/m2 CLR
14:31 15.0 °F /  -9.4 °C 7.1 °F /  -13.8 °C 1021.9 in /  34601.5 hPa NNW 41.8 mph /  67.3 km/h 41.8 mph /  67.3 km/h 59 % 0.0 in /  0 mm 432.0 W/m2 CLR
14:36 15.0 °F /  -9.4 °C 7.1 °F /  -13.8 °C 1021.9 in /  34601.5 hPa NNW 42.6 mph /  68.6 km/h 42.6 mph /  68.6 km/h 59 % 0.0 in /  0 mm 425.0 W/m2 CLR
14:41 15.0 °F /  -9.4 °C 7.1 °F /  -13.8 °C 1021.6 in /  34591.4 hPa NNW 42.6 mph /  68.6 km/h 42.6 mph /  68.6 km/h 59 % 0.0 in /  0 mm 417.0 W/m2 CLR
14:46 15.0 °F /  -9.4 °C 7.3 °F /  -13.7 °C 1021.6 in /  34591.4 hPa NNW 33.3 mph /  53.6 km/h 33.3 mph /  53.6 km/h 60 % 0.0 in /  0 mm 413.0 W/m2 CLR
14:51 15.6 °F /  -9.1 °C 7.6 °F /  -13.6 °C 1021.6 in /  34591.4 hPa North 40.7 mph /  65.5 km/h 40.7 mph /  65.5 km/h 59 % 0.0 in /  0 mm 403.0 W/m2 CLR
14:56 15.6 °F /  -9.1 °C 7.6 °F /  -13.6 °C 1021.6 in /  34591.4 hPa NNW 33.3 mph /  53.6 km/h 33.3 mph /  53.6 km/h 59 % 0.0 in /  0 mm 397.0 W/m2 CLR
15:01 15.0 °F /  -9.4 °C 7.3 °F /  -13.7 °C 1021.6 in /  34591.4 hPa North 42.6 mph /  68.6 km/h 42.6 mph /  68.6 km/h 60 % 0.0 in /  0 mm 388.0 W/m2 CLR
15:06 15.0 °F /  -9.4 °C 7.1 °F /  -13.8 °C 1021.6 in /  34591.4 hPa North 42.6 mph /  68.6 km/h 42.6 mph /  68.6 km/h 59 % 0.0 in /  0 mm 378.0 W/m2 CLR
15:11 15.0 °F /  -9.4 °C 7.3 °F /  -13.7 °C 1021.6 in /  34591.4 hPa NNW 42.6 mph /  68.6 km/h 42.6 mph /  68.6 km/h 60 % 0.0 in /  0 mm 371.0 W/m2 CLR
15:16 15.6 °F /  -9.1 °C 7.8 °F /  -13.4 °C 1021.6 in /  34591.4 hPa NNW 43.4 mph /  69.8 km/h 43.4 mph /  69.8 km/h 60 % 0.0 in /  0 mm 360.0 W/m2 CLR
15:21 15.6 °F /  -9.1 °C 7.8 °F /  -13.4 °C 1021.6 in /  34591.4 hPa NW 31.5 mph /  50.7 km/h 31.5 mph /  50.7 km/h 60 % 0.0 in /  0 mm 352.0 W/m2 CLR
15:26 15.0 °F /  -9.4 °C 7.3 °F /  -13.7 °C 1021.6 in /  34591.4 hPa NW 31.5 mph /  50.7 km/h 31.5 mph /  50.7 km/h 60 % 0.0 in /  0 mm 343.0 W/m2 CLR
15:31 15.0 °F /  -9.4 °C 7.3 °F /  -13.7 °C 1021.6 in /  34591.4 hPa NNW 35.2 mph /  56.6 km/h 35.2 mph /  56.6 km/h 60 % 0.0 in /  0 mm 332.0 W/m2 CLR
15:36 15.6 °F /  -9.1 °C 7.8 °F /  -13.4 °C 1021.6 in /  34591.4 hPa NNW 32.2 mph /  51.8 km/h 32.2 mph /  51.8 km/h 60 % 0.0 in /  0 mm 322.0 W/m2 CLR
15:41 15.6 °F /  -9.1 °C 7.8 °F /  -13.4 °C 1021.6 in /  34591.4 hPa NNW 31.5 mph /  50.7 km/h 31.5 mph /  50.7 km/h 60 % 0.0 in /  0 mm 313.0 W/m2 CLR
15:46 15.6 °F /  -9.1 °C 7.8 °F /  -13.4 °C 1021.6 in /  34591.4 hPa NNW 42.6 mph /  68.6 km/h 42.6 mph /  68.6 km/h 60 % 0.0 in /  0 mm 302.0 W/m2 CLR
15:51 15.0 °F /  -9.4 °C 7.3 °F /  -13.7 °C 1021.6 in /  34591.4 hPa NNW 38.9 mph /  62.6 km/h 38.9 mph /  62.6 km/h 60 % 0.0 in /  0 mm 294.0 W/m2 CLR
15:56 15.0 °F /  -9.4 °C 7.1 °F /  -13.8 °C 1021.6 in /  34591.4 hPa NNW 40.7 mph /  65.5 km/h 40.7 mph /  65.5 km/h 59 % 0.0 in /  0 mm 278.0 W/m2 CLR
16:01 15.0 °F /  -9.4 °C 7.3 °F /  -13.7 °C 1021.6 in /  34591.4 hPa NNW 40.7 mph /  65.5 km/h 40.7 mph /  65.5 km/h 60 % 0.0 in /  0 mm 269.0 W/m2 CLR
16:06 15.0 °F /  -9.4 °C 7.3 °F /  -13.7 °C 1021.9 in /  34601.5 hPa NNW 42.6 mph /  68.6 km/h 42.6 mph /  68.6 km/h 60 % 0.0 in /  0 mm 260.0 W/m2 CLR
16:11 15.0 °F /  -9.4 °C 7.3 °F /  -13.7 °C 1021.9 in /  34601.5 hPa NNW 37.0 mph /  59.5 km/h 37.0 mph /  59.5 km/h 60 % 0.0 in /  0 mm 243.0 W/m2 CLR
16:16 15.0 °F /  -9.4 °C 7.6 °F /  -13.6 °C 1021.9 in /  34601.5 hPa NNW 20.9 mph /  33.6 km/h 20.9 mph /  33.6 km/h 61 % 0.0 in /  0 mm 225.0 W/m2 CLR
16:21 15.0 °F /  -9.4 °C 7.3 °F /  -13.7 °C 1021.6 in /  34591.4 hPa NNW 38.9 mph /  62.6 km/h 38.9 mph /  62.6 km/h 60 % 0.0 in /  0 mm 209.0 W/m2 CLR
16:26 14.4 °F /  -9.8 °C 6.8 °F /  -14 °C 1021.6 in /  34591.4 hPa North 35.2 mph /  56.6 km/h 35.2 mph /  56.6 km/h 60 % 0.0 in /  0 mm 193.0 W/m2 CLR
16:31 14.4 °F /  -9.8 °C 7.0 °F /  -13.9 °C 1021.6 in /  34591.4 hPa NW 35.2 mph /  56.6 km/h 35.2 mph /  56.6 km/h 61 % 0.0 in /  0 mm 181.0 W/m2 CLR
16:36 13.9 °F /  -10.1 °C 6.5 °F /  -14.2 °C 1021.6 in /  34591.4 hPa NW 35.2 mph /  56.6 km/h 35.2 mph /  56.6 km/h 61 % 0.0 in /  0 mm 165.0 W/m2 CLR
16:41 13.9 °F /  -10.1 °C 6.7 °F /  -14.1 °C 1021.6 in /  34591.4 hPa NW 42.6 mph /  68.6 km/h 42.6 mph /  68.6 km/h 62 % 0.0 in /  0 mm 148.0 W/m2 CLR
16:46 13.9 °F /  -10.1 °C 6.7 °F /  -14.1 °C 1021.9 in /  34601.5 hPa North 29.6 mph /  47.6 km/h 29.6 mph /  47.6 km/h 62 % 0.0 in /  0 mm 134.0 W/m2 CLR
16:51 13.9 °F /  -10.1 °C 6.7 °F /  -14.1 °C 1021.9 in /  34601.5 hPa North 37.0 mph /  59.5 km/h 37.0 mph /  59.5 km/h 62 % 0.0 in /  0 mm 120.0 W/m2 CLR
16:56 13.9 °F /  -10.1 °C 6.7 °F /  -14.1 °C 1021.9 in /  34601.5 hPa NNW 53.7 mph /  86.4 km/h 53.7 mph /  86.4 km/h 62 % 0.0 in /  0 mm 105.0 W/m2 CLR
17:01 13.9 °F /  -10.1 °C 6.9 °F /  -13.9 °C 1021.9 in /  34601.5 hPa NNW 40.7 mph /  65.5 km/h 40.7 mph /  65.5 km/h 63 % 0.0 in /  0 mm 90.0 W/m2 CLR
17:06 13.3 °F /  -10.4 °C 6.7 °F /  -14.1 °C 1021.9 in /  34601.5 hPa NNW 33.8 mph /  54.4 km/h 33.8 mph /  54.4 km/h 64 % 0.0 in /  0 mm 74.0 W/m2 FEW
17:12 13.3 °F /  -10.4 °C 6.7 °F /  -14.1 °C 1022.2 in /  34611.7 hPa North 46.3 mph /  74.5 km/h 46.3 mph /  74.5 km/h 64 % 0.0 in /  0 mm 58.0 W/m2 SCT
17:17 13.3 °F /  -10.4 °C 6.7 °F /  -14.1 °C 1022.2 in /  34611.7 hPa NNW 31.5 mph /  50.7 km/h 31.5 mph /  50.7 km/h 64 % 0.0 in /  0 mm 51.0 W/m2 SCT
17:22 13.3 °F /  -10.4 °C 6.7 °F /  -14.1 °C 1022.6 in /  34625.2 hPa NNW 38.9 mph /  62.6 km/h 38.9 mph /  62.6 km/h 64 % 0.0 in /  0 mm 40.0 W/m2 BKN
17:27 13.3 °F /  -10.4 °C 6.7 °F /  -14.1 °C 1022.6 in /  34625.2 hPa NNW 42.6 mph /  68.6 km/h 42.6 mph /  68.6 km/h 64 % 0.0 in /  0 mm 28.0 W/m2 BKN
17:32 13.3 °F /  -10.4 °C 6.7 °F /  -14.1 °C 1022.6 in /  34625.2 hPa NNW 44.4 mph /  71.5 km/h 44.4 mph /  71.5 km/h 64 % 0.0 in /  0 mm 14.0 W/m2 BKN
17:37 13.3 °F /  -10.4 °C 6.7 °F /  -14.1 °C 1022.9 in /  34635.4 hPa NNW 35.2 mph /  56.6 km/h 35.2 mph /  56.6 km/h 64 % 0.0 in /  0 mm 14.0 W/m2 BKN
17:42 12.8 °F /  -10.7 °C 6.3 °F /  -14.3 °C 1022.9 in /  34635.4 hPa NW 29.6 mph /  47.6 km/h 29.6 mph /  47.6 km/h 65 % 0.0 in /  0 mm 11.0 W/m2 BKN
17:47 12.8 °F /  -10.7 °C 6.3 °F /  -14.3 °C 1022.9 in /  34635.4 hPa NNW 40.7 mph /  65.5 km/h 40.7 mph /  65.5 km/h 65 % 0.0 in /  0 mm 9.0 W/m2 BKN
17:52 12.8 °F /  -10.7 °C 6.3 °F /  -14.3 °C 1022.9 in /  34635.4 hPa NW 33.3 mph /  53.6 km/h 33.3 mph /  53.6 km/h 65 % 0.0 in /  0 mm 7.0 W/m2 BKN
17:57 12.8 °F /  -10.7 °C 6.3 °F /  -14.3 °C 1023.2 in /  34645.6 hPa NNW 42.6 mph /  68.6 km/h 42.6 mph /  68.6 km/h 65 % 0.0 in /  0 mm 7.0 W/m2 BKN
18:02 12.8 °F /  -10.7 °C 6.3 °F /  -14.3 °C 1022.9 in /  34635.4 hPa North 44.4 mph /  71.5 km/h 44.4 mph /  71.5 km/h 65 % 0.0 in /  0 mm 0.0 W/m2 OVC
18:07 12.8 °F /  -10.7 °C 6.3 °F /  -14.3 °C 1023.2 in /  34645.6 hPa North 46.3 mph /  74.5 km/h 46.3 mph /  74.5 km/h 65 % 0.0 in /  0 mm 0.0 W/m2 OVC
18:12 12.8 °F /  -10.7 °C 6.3 °F /  -14.3 °C 1023.2 in /  34645.6 hPa NW 50.0 mph /  80.5 km/h 50.0 mph /  80.5 km/h 65 % 0.0 in /  0 mm 0.0 W/m2 CLR
18:17 12.2 °F /  -11 °C 5.8 °F /  -14.6 °C 1023.6 in /  34659.1 hPa NNW 44.4 mph /  71.5 km/h 44.4 mph /  71.5 km/h 65 % 0.0 in /  0 mm 0.0 W/m2 CLR
18:22 12.2 °F /  -11 °C 6.1 °F /  -14.4 °C 1023.6 in /  34659.1 hPa North 35.2 mph /  56.6 km/h 35.2 mph /  56.6 km/h 66 % 0.0 in /  0 mm 0.0 W/m2 CLR
18:27 12.2 °F /  -11 °C 6.1 °F /  -14.4 °C 1023.6 in /  34659.1 hPa North 48.3 mph /  77.7 km/h 48.3 mph /  77.7 km/h 66 % 0.0 in /  0 mm 0.0 W/m2 CLR
18:32 11.7 °F /  -11.3 °C 5.5 °F /  -14.7 °C 1023.6 in /  34659.1 hPa NNW 38.9 mph /  62.6 km/h 38.9 mph /  62.6 km/h 66 % 0.0 in /  0 mm 0.0 W/m2 CLR
18:37 11.7 °F /  -11.3 °C 5.5 °F /  -14.7 °C 1023.9 in /  34669.3 hPa NNW 29.0 mph /  46.7 km/h 29.0 mph /  46.7 km/h 66 % 0.0 in /  0 mm 0.0 W/m2 CLR
18:42 11.7 °F /  -11.3 °C 5.5 °F /  -14.7 °C 1023.9 in /  34669.3 hPa North 37.0 mph /  59.5 km/h 37.0 mph /  59.5 km/h 66 % 0.0 in /  0 mm 0.0 W/m2 CLR
18:47 11.7 °F /  -11.3 °C 5.5 °F /  -14.7 °C 1023.9 in /  34669.3 hPa NNW 33.3 mph /  53.6 km/h 33.3 mph /  53.6 km/h 66 % 0.0 in /  0 mm 0.0 W/m2 CLR
18:52 11.7 °F /  -11.3 °C 5.9 °F /  -14.5 °C 1023.9 in /  34669.3 hPa NNW 27.8 mph /  44.7 km/h 27.8 mph /  44.7 km/h 68 % 0.0 in /  0 mm 0.0 W/m2 CLR
18:57 11.7 °F /  -11.3 °C 6.2 °F /  -14.3 °C 1023.9 in /  34669.3 hPa NNW 27.4 mph /  44.1 km/h 27.4 mph /  44.1 km/h 69 % 0.0 in /  0 mm 0.0 W/m2 CLR
19:02 11.1 °F /  -11.6 °C 5.8 °F /  -14.6 °C 1024.3 in /  34682.8 hPa North 31.5 mph /  50.7 km/h 31.5 mph /  50.7 km/h 70 % 0.0 in /  0 mm 0.0 W/m2 CLR
19:07 11.1 °F /  -11.6 °C 6.1 °F /  -14.4 °C 1024.3 in /  34682.8 hPa NW 31.5 mph /  50.7 km/h 31.5 mph /  50.7 km/h 71 % 0.0 in /  0 mm 0.0 W/m2 CLR
19:12 11.1 °F /  -11.6 °C 6.1 °F /  -14.4 °C 1024.3 in /  34682.8 hPa NW 31.5 mph /  50.7 km/h 31.5 mph /  50.7 km/h 71 % 0.0 in /  0 mm 0.0 W/m2 CLR
19:17 11.1 °F /  -11.6 °C 6.1 °F /  -14.4 °C 1024.3 in /  34682.8 hPa NNW 35.2 mph /  56.6 km/h 35.2 mph /  56.6 km/h 71 % 0.0 in /  0 mm 0.0 W/m2 CLR
19:22 11.1 °F /  -11.6 °C 5.8 °F /  -14.6 °C 1024.3 in /  34682.8 hPa NNW 33.8 mph /  54.4 km/h 33.8 mph /  54.4 km/h 70 % 0.0 in /  0 mm 0.0 W/m2 CLR
19:27 11.1 °F /  -11.6 °C 5.8 °F /  -14.6 °C 1024.6 in /  34693 hPa NNW 37.0 mph /  59.5 km/h 37.0 mph /  59.5 km/h 70 % 0.0 in /  0 mm 0.0 W/m2 CLR
19:32 11.1 °F /  -11.6 °C 5.8 °F /  -14.6 °C 1024.6 in /  34693 hPa NNW 35.4 mph /  57 km/h 35.4 mph /  57 km/h 70 % 0.0 in /  0 mm 0.0 W/m2 CLR
19:37 10.6 °F /  -11.9 °C 5.1 °F /  -14.9 °C 1024.6 in /  34693 hPa NNW 37.0 mph /  59.5 km/h 37.0 mph /  59.5 km/h 69 % 0.0 in /  0 mm 0.0 W/m2 CLR
19:42 10.6 °F /  -11.9 °C 5.1 °F /  -14.9 °C 1024.3 in /  34682.8 hPa NNW 35.2 mph /  56.6 km/h 35.2 mph /  56.6 km/h 69 % 0.0 in /  0 mm 0.0 W/m2 CLR
19:47 10.6 °F /  -11.9 °C 5.1 °F /  -14.9 °C 1024.6 in /  34693 hPa NNW 38.9 mph /  62.6 km/h 38.9 mph /  62.6 km/h 69 % 0.0 in /  0 mm 0.0 W/m2 CLR
19:52 10.6 °F /  -11.9 °C 5.1 °F /  -14.9 °C 1024.3 in /  34682.8 hPa NW 27.8 mph /  44.7 km/h 27.8 mph /  44.7 km/h 69 % 0.0 in /  0 mm 0.0 W/m2 CLR
19:57 10.6 °F /  -11.9 °C 5.1 °F /  -14.9 °C 1024.6 in /  34693 hPa NNW 42.6 mph /  68.6 km/h 42.6 mph /  68.6 km/h 69 % 0.0 in /  0 mm 0.0 W/m2 CLR
20:02 10.6 °F /  -11.9 °C 5.1 °F /  -14.9 °C 1024.9 in /  34703.1 hPa NNW 37.0 mph /  59.5 km/h 37.0 mph /  59.5 km/h 69 % 0.0 in /  0 mm 0.0 W/m2 CLR
20:07 10.0 °F /  -12.2 °C 4.8 °F /  -15.1 °C 1024.9 in /  34703.1 hPa NW 35.2 mph /  56.6 km/h 35.2 mph /  56.6 km/h 70 % 0.0 in /  0 mm 0.0 W/m2 CLR
20:12 10.0 °F /  -12.2 °C 4.8 °F /  -15.1 °C 1024.9 in /  34703.1 hPa NW 31.5 mph /  50.7 km/h 31.5 mph /  50.7 km/h 70 % 0.0 in /  0 mm 0.0 W/m2 CLR
20:17 10.0 °F /  -12.2 °C 4.8 °F /  -15.1 °C 1025.3 in /  34716.7 hPa WNW 22.2 mph /  35.7 km/h 22.2 mph /  35.7 km/h 70 % 0.0 in /  0 mm 0.0 W/m2 CLR
20:22 10.0 °F /  -12.2 °C 5.0 °F /  -15 °C 1024.9 in /  34703.1 hPa NW 31.5 mph /  50.7 km/h 31.5 mph /  50.7 km/h 71 % 0.0 in /  0 mm 0.0 W/m2 CLR
20:27 10.0 °F /  -12.2 °C 5.0 °F /  -15 °C 1025.3 in /  34716.7 hPa NNW 33.3 mph /  53.6 km/h 33.3 mph /  53.6 km/h 71 % 0.0 in /  0 mm 0.0 W/m2 CLR
20:32 9.4 °F /  -12.6 °C 4.4 °F /  -15.3 °C 1025.3 in /  34716.7 hPa North 33.3 mph /  53.6 km/h 33.3 mph /  53.6 km/h 71 % 0.0 in /  0 mm 0.0 W/m2 CLR
20:37 9.4 °F /  -12.6 °C 4.7 °F /  -15.2 °C 1025.3 in /  34716.7 hPa NNW 25.9 mph /  41.7 km/h 25.9 mph /  41.7 km/h 72 % 0.0 in /  0 mm 0.0 W/m2 CLR
20:41 9.4 °F /  -12.6 °C 4.7 °F /  -15.2 °C 1025.3 in /  34716.7 hPa NW 35.2 mph /  56.6 km/h 35.2 mph /  56.6 km/h 72 % 0.0 in /  0 mm 0.0 W/m2 CLR
20:46 9.4 °F /  -12.6 °C 4.7 °F /  -15.2 °C 1025.3 in /  34716.7 hPa North 33.3 mph /  53.6 km/h 33.3 mph /  53.6 km/h 72 % 0.0 in /  0 mm 0.0 W/m2 CLR
20:51 9.4 °F /  -12.6 °C 4.7 °F /  -15.2 °C 1025.6 in /  34726.8 hPa NNW 31.5 mph /  50.7 km/h 31.5 mph /  50.7 km/h 72 % 0.0 in /  0 mm 0.0 W/m2 CLR
20:56 9.4 °F /  -12.6 °C 4.8 °F /  -15.1 °C 1025.6 in /  34726.8 hPa NNW 29.6 mph /  47.6 km/h 29.6 mph /  47.6 km/h 73 % 0.0 in /  0 mm 0.0 W/m2 CLR
21:01 9.4 °F /  -12.6 °C 4.8 °F /  -15.1 °C 1025.6 in /  34726.8 hPa NW 27.8 mph /  44.7 km/h 27.8 mph /  44.7 km/h 73 % 0.0 in /  0 mm 0.0 W/m2 CLR
21:06 9.4 °F /  -12.6 °C 4.8 °F /  -15.1 °C 1025.3 in /  34716.7 hPa NW 30.6 mph /  49.2 km/h 30.6 mph /  49.2 km/h 73 % 0.0 in /  0 mm 0.0 W/m2 CLR
21:11 9.4 °F /  -12.6 °C 4.8 °F /  -15.1 °C 1025.3 in /  34716.7 hPa NNW 31.5 mph /  50.7 km/h 31.5 mph /  50.7 km/h 73 % 0.0 in /  0 mm 0.0 W/m2 CLR
21:16 9.4 °F /  -12.6 °C 4.8 °F /  -15.1 °C 1025.3 in /  34716.7 hPa North 35.2 mph /  56.6 km/h 35.2 mph /  56.6 km/h 73 % 0.0 in /  0 mm 0.0 W/m2 CLR
21:22 9.4 °F /  -12.6 °C 4.8 °F /  -15.1 °C 1025.3 in /  34716.7 hPa NNW 24.1 mph /  38.8 km/h 24.1 mph /  38.8 km/h 73 % 0.0 in /  0 mm 0.0 W/m2 CLR
21:27 9.4 °F /  -12.6 °C 4.8 °F /  -15.1 °C 1025.3 in /  34716.7 hPa WNW 40.7 mph /  65.5 km/h 40.7 mph /  65.5 km/h 73 % 0.0 in /  0 mm 0.0 W/m2 CLR
21:31 9.4 °F /  -12.6 °C 4.8 °F /  -15.1 °C 1025.6 in /  34726.8 hPa NW 31.5 mph /  50.7 km/h 31.5 mph /  50.7 km/h 73 % 0.0 in /  0 mm 0.0 W/m2 CLR
21:37 9.4 °F /  -12.6 °C 4.8 °F /  -15.1 °C 1025.6 in /  34726.8 hPa NW 33.3 mph /  53.6 km/h 33.3 mph /  53.6 km/h 73 % 0.0 in /  0 mm 0.0 W/m2 CLR
21:42 9.4 °F /  -12.6 °C 5.1 °F /  -14.9 °C 1025.6 in /  34726.8 hPa NNW 31.5 mph /  50.7 km/h 31.5 mph /  50.7 km/h 74 % 0.0 in /  0 mm 0.0 W/m2 CLR
21:47 8.9 °F /  -12.8 °C 4.5 °F /  -15.3 °C 1025.3 in /  34716.7 hPa NW 33.3 mph /  53.6 km/h 33.3 mph /  53.6 km/h 74 % 0.0 in /  0 mm 0.0 W/m2 CLR
21:52 8.9 °F /  -12.8 °C 4.5 °F /  -15.3 °C 1025.3 in /  34716.7 hPa NW 46.3 mph /  74.5 km/h 46.3 mph /  74.5 km/h 74 % 0.0 in /  0 mm 0.0 W/m2 CLR
21:57 8.9 °F /  -12.8 °C 4.5 °F /  -15.3 °C 1025.3 in /  34716.7 hPa North 29.0 mph /  46.7 km/h 30.9 mph /  49.7 km/h 74 % 0.0 in /  0 mm 0.0 W/m2 CLR
22:02 8.9 °F /  -12.8 °C 4.5 °F /  -15.3 °C 1025.3 in /  34716.7 hPa NNW 44.4 mph /  71.5 km/h 44.4 mph /  71.5 km/h 74 % 0.0 in /  0 mm 0.0 W/m2 CLR
22:07 8.9 °F /  -12.8 °C 4.5 °F /  -15.3 °C 1025.3 in /  34716.7 hPa NNW 35.2 mph /  56.6 km/h 35.2 mph /  56.6 km/h 74 % 0.0 in /  0 mm 0.0 W/m2 CLR
22:12 9.4 °F /  -12.6 °C 4.8 °F /  -15.1 °C 1025.3 in /  34716.7 hPa North 48.1 mph /  77.4 km/h 48.1 mph /  77.4 km/h 73 % 0.0 in /  0 mm 0.0 W/m2 CLR
22:17 9.4 °F /  -12.6 °C 4.8 °F /  -15.1 °C 1025.6 in /  34726.8 hPa NW 50.0 mph /  80.5 km/h 50.0 mph /  80.5 km/h 73 % 0.0 in /  0 mm 0.0 W/m2 CLR
22:22 9.4 °F /  -12.6 °C 4.8 °F /  -15.1 °C 1025.6 in /  34726.8 hPa NW 53.7 mph /  86.4 km/h 53.7 mph /  86.4 km/h 73 % 0.0 in /  0 mm 0.0 W/m2 CLR
22:27 9.4 °F /  -12.6 °C 4.8 °F /  -15.1 °C 1025.6 in /  34726.8 hPa NNW 37.0 mph /  59.5 km/h 37.0 mph /  59.5 km/h 73 % 0.0 in /  0 mm 0.0 W/m2 CLR
22:32 8.9 °F /  -12.8 °C 4.3 °F /  -15.4 °C 1026.0 in /  34740.4 hPa North 33.8 mph /  54.4 km/h 33.8 mph /  54.4 km/h 73 % 0.0 in /  0 mm 0.0 W/m2 CLR
22:37 9.4 °F /  -12.6 °C 4.7 °F /  -15.2 °C 1025.6 in /  34726.8 hPa NNW 40.7 mph /  65.5 km/h 40.7 mph /  65.5 km/h 72 % 0.0 in /  0 mm 0.0 W/m2 CLR
22:42 9.4 °F /  -12.6 °C 4.4 °F /  -15.3 °C 1026.0 in /  34740.4 hPa NNW 35.2 mph /  56.6 km/h 35.2 mph /  56.6 km/h 71 % 0.0 in /  0 mm 0.0 W/m2 CLR
22:47 9.4 °F /  -12.6 °C 4.4 °F /  -15.3 °C 1026.0 in /  34740.4 hPa NNW 46.3 mph /  74.5 km/h 46.3 mph /  74.5 km/h 71 % 0.0 in /  0 mm 0.0 W/m2 CLR
22:52 9.4 °F /  -12.6 °C 4.2 °F /  -15.4 °C 1026.3 in /  34750.5 hPa NNW 42.6 mph /  68.6 km/h 42.6 mph /  68.6 km/h 70 % 0.0 in /  0 mm 0.0 W/m2 CLR
22:57 9.4 °F /  -12.6 °C 4.1 °F /  -15.5 °C 1026.0 in /  34740.4 hPa NNW 48.1 mph /  77.4 km/h 48.1 mph /  77.4 km/h 69 % 0.0 in /  0 mm 0.0 W/m2 CLR
23:02 9.4 °F /  -12.6 °C 3.8 °F /  -15.7 °C 1026.0 in /  34740.4 hPa NNW 35.2 mph /  56.6 km/h 35.2 mph /  56.6 km/h 68 % 0.0 in /  0 mm 0.0 W/m2 CLR
23:07 9.4 °F /  -12.6 °C 3.8 °F /  -15.7 °C 1026.0 in /  34740.4 hPa NNW 40.7 mph /  65.5 km/h 40.7 mph /  65.5 km/h 68 % 0.0 in /  0 mm 0.0 W/m2 CLR
23:12 9.4 °F /  -12.6 °C 4.1 °F /  -15.5 °C 1026.0 in /  34740.4 hPa NW 31.5 mph /  50.7 km/h 31.5 mph /  50.7 km/h 69 % 0.0 in /  0 mm 0.0 W/m2 CLR
23:17 9.4 °F /  -12.6 °C 4.1 °F /  -15.5 °C 1026.0 in /  34740.4 hPa NW 38.6 mph /  62.1 km/h 38.6 mph /  62.1 km/h 69 % 0.0 in /  0 mm 0.0 W/m2 CLR
23:22 9.4 °F /  -12.6 °C 4.1 °F /  -15.5 °C 1026.0 in /  34740.4 hPa WNW 27.8 mph /  44.7 km/h 27.8 mph /  44.7 km/h 69 % 0.0 in /  0 mm 0.0 W/m2 CLR
23:27 9.4 °F /  -12.6 °C 4.1 °F /  -15.5 °C 1026.0 in /  34740.4 hPa North 25.9 mph /  41.7 km/h 25.9 mph /  41.7 km/h 69 % 0.0 in /  0 mm 0.0 W/m2 CLR
23:32 9.4 °F /  -12.6 °C 4.2 °F /  -15.4 °C 1026.0 in /  34740.4 hPa NW 25.7 mph /  41.4 km/h 25.7 mph /  41.4 km/h 70 % 0.0 in /  0 mm 0.0 W/m2 CLR
23:37 8.9 °F /  -12.8 °C 3.5 °F /  -15.8 °C 1026.0 in /  34740.4 hPa NW 24.1 mph /  38.8 km/h 24.1 mph /  38.8 km/h 69 % 0.0 in /  0 mm 0.0 W/m2 CLR
23:42 8.9 °F /  -12.8 °C 3.7 °F /  -15.7 °C 1026.0 in /  34740.4 hPa NNW 35.2 mph /  56.6 km/h 35.2 mph /  56.6 km/h 70 % 0.0 in /  0 mm 0.0 W/m2 CLR
23:47 8.9 °F /  -12.8 °C 3.7 °F /  -15.7 °C 1026.0 in /  34740.4 hPa NW 27.8 mph /  44.7 km/h 27.8 mph /  44.7 km/h 70 % 0.0 in /  0 mm 0.0 W/m2 CLR
23:52 8.9 °F /  -12.8 °C 3.9 °F /  -15.6 °C 1026.3 in /  34750.5 hPa NNW 27.8 mph /  44.7 km/h 27.8 mph /  44.7 km/h 71 % 0.0 in /  0 mm 0.0 W/m2 CLR
23:57 8.9 °F /  -12.8 °C 3.9 °F /  -15.6 °C 1026.3 in /  34750.5 hPa NW 18.5 mph /  29.8 km/h 18.5 mph /  29.8 km/h 71 % 0.0 in /  0 mm 0.0 W/m2 CLR
Lo Temps de Massalio
Compliments of Weather Underground - 1.25 mb